createdAt,value
2022-08-17T00:00:00.326Z,12.35
2022-08-17T00:04:56.695Z,8.35
2022-08-17T00:09:53.109Z,13.23
2022-08-17T00:14:49.953Z,16.30
2022-08-17T00:19:46.601Z,9.57
2022-08-17T00:24:42.954Z,9.65
2022-08-17T00:29:39.328Z,10.27
2022-08-17T00:34:35.658Z,11.80
2022-08-17T00:39:32.055Z,11.73
2022-08-17T00:44:31.241Z,14.20
2022-08-17T00:49:27.766Z,11.82
2022-08-17T00:54:29.770Z,10.00
2022-08-17T00:59:33.026Z,8.77
2022-08-17T01:04:31.381Z,11.60
2022-08-17T01:09:27.921Z,11.32
2022-08-17T01:14:26.101Z,10.15
2022-08-17T01:19:26.632Z,9.43
2022-08-17T01:24:23.374Z,11.40
2022-08-17T01:29:21.617Z,8.20
2022-08-17T01:34:18.906Z,7.68
2022-08-17T01:39:34.138Z,11.43
2022-08-17T01:44:30.637Z,9.20
2022-08-17T01:49:27.033Z,12.13
2022-08-17T01:54:25.244Z,13.73
2022-08-17T01:59:21.766Z,12.20
2022-08-17T02:04:18.326Z,14.68
2022-08-17T02:09:16.784Z,18.30
2022-08-17T02:14:14.211Z,15.32
2022-08-17T02:19:15.537Z,12.03
2022-08-17T02:24:17.271Z,11.85
2022-08-17T02:29:15.129Z,12.57
2022-08-17T02:39:10.477Z,13.68
2022-08-17T02:44:07.204Z,15.70
2022-08-17T02:49:04.956Z,8.98
2022-08-17T02:59:17.522Z,8.90
2022-08-17T03:04:14.012Z,10.98
2022-08-17T03:09:10.339Z,10.45
2022-08-17T03:14:06.675Z,11.20
2022-08-17T03:19:03.064Z,11.27
2022-08-17T03:23:59.653Z,12.25
2022-08-17T03:28:55.970Z,9.07
2022-08-17T03:33:52.509Z,11.38
2022-08-17T03:38:48.838Z,13.13
2022-08-17T03:43:47.426Z,9.52
2022-08-17T03:49:02.362Z,9.85
2022-08-17T03:54:18.350Z,11.50
2022-08-17T03:59:21.171Z,13.68
2022-08-17T04:04:20.150Z,8.90
2022-08-17T04:09:24.050Z,10.32
2022-08-17T04:14:20.739Z,10.85
2022-08-17T04:19:17.170Z,9.93
2022-08-17T04:24:13.573Z,8.98
2022-08-17T04:29:10.012Z,8.43
2022-08-17T04:34:06.637Z,10.02
2022-08-17T04:39:03.698Z,10.20
2022-08-17T04:44:01.244Z,9.60
2022-08-17T04:48:57.903Z,9.25
2022-08-17T04:53:57.287Z,14.65
2022-08-17T04:58:57.624Z,11.93
2022-08-17T05:03:56.801Z,10.38
2022-08-17T05:08:54.163Z,7.97
2022-08-17T05:13:50.638Z,12.57
2022-08-17T05:18:47.612Z,7.82
2022-08-17T05:23:45.055Z,11.93
2022-08-17T05:28:47.938Z,9.73
2022-08-17T05:33:46.243Z,9.90
2022-08-17T05:38:42.887Z,8.52
2022-08-17T05:43:41.938Z,12.10
2022-08-17T05:48:41.406Z,10.75
2022-08-17T05:54:00.538Z,9.10
2022-08-17T05:59:23.820Z,10.55
2022-08-17T06:05:00.702Z,12.00
2022-08-17T06:10:02.998Z,15.98
2022-08-17T06:15:19.524Z,12.70
2022-08-17T06:20:16.254Z,8.80
2022-08-17T06:25:14.768Z,13.97
2022-08-17T06:30:20.211Z,10.65
2022-08-17T06:35:28.888Z,9.48
2022-08-17T06:40:39.833Z,10.48
2022-08-17T06:45:49.017Z,13.95
2022-08-17T06:50:53.609Z,15.35
2022-08-17T06:55:59.782Z,8.27
2022-08-17T07:00:59.097Z,9.23
2022-08-17T07:06:04.406Z,6.60
2022-08-17T07:11:06.891Z,11.30
2022-08-17T07:16:20.310Z,9.70
2022-08-17T07:21:26.760Z,10.35
2022-08-17T07:26:24.193Z,11.35
2022-08-17T07:31:20.924Z,5.25
2022-08-17T07:36:29.622Z,3.47
2022-08-17T07:41:27.648Z,8.23
2022-08-17T07:47:11.296Z,4.93
2022-08-17T07:52:50.692Z,4.57
2022-08-17T07:57:55.060Z,5.13
2022-08-17T08:03:03.624Z,4.95
2022-08-17T08:08:05.864Z,4.55
2022-08-17T08:13:20.608Z,5.78
2022-08-17T08:18:38.725Z,4.68
2022-08-17T08:23:57.368Z,3.97
2022-08-17T08:29:09.361Z,4.10
2022-08-17T08:34:55.867Z,4.43
2022-08-17T08:39:57.169Z,4.53
2022-08-17T08:45:06.704Z,5.38
2022-08-17T08:50:30.233Z,10.48
2022-08-17T08:55:52.163Z,3.55
2022-08-17T09:00:53.823Z,3.40
2022-08-17T09:06:38.583Z,4.22
2022-08-17T09:12:01.803Z,4.85
2022-08-17T09:17:14.429Z,4.22
2022-08-17T09:22:31.362Z,3.70
2022-08-17T09:27:34.994Z,6.80
2022-08-17T09:32:39.087Z,6.03
2022-08-17T09:37:51.214Z,2.40
2022-08-17T09:42:52.384Z,6.35
2022-08-17T09:48:24.938Z,5.03
2022-08-17T09:53:23.884Z,5.00
2022-08-17T09:58:33.436Z,2.75
2022-08-17T10:03:55.741Z,3.92
2022-08-17T10:09:08.159Z,2.15
2022-08-17T10:14:36.583Z,5.43
2022-08-17T10:19:39.560Z,4.95
2022-08-17T10:25:22.899Z,2.05
2022-08-17T10:30:28.284Z,2.22
2022-08-17T10:35:43.740Z,1.70
2022-08-17T10:40:52.058Z,2.63
2022-08-17T10:46:10.616Z,2.67
2022-08-17T10:51:48.020Z,2.72
2022-08-17T10:56:47.454Z,5.85
2022-08-17T11:02:01.230Z,7.05
2022-08-17T11:07:30.454Z,4.68
2022-08-17T11:12:37.584Z,8.77
2022-08-17T11:17:41.319Z,4.07
2022-08-17T11:23:06.088Z,4.05
2022-08-17T11:28:13.894Z,5.97
2022-08-17T11:33:32.968Z,4.00
2022-08-17T11:39:03.170Z,3.22
2022-08-17T11:44:25.238Z,1.85
2022-08-17T11:50:00.588Z,2.88
2022-08-17T11:55:17.703Z,3.20
2022-08-17T12:00:49.758Z,2.22
2022-08-17T12:05:46.178Z,4.50
2022-08-17T12:15:52.679Z,5.00
2022-08-17T12:21:12.123Z,6.88
2022-08-17T12:26:20.766Z,2.33
2022-08-17T12:31:25.776Z,7.60
2022-08-17T12:36:24.764Z,4.47
2022-08-17T12:41:43.281Z,3.38
2022-08-17T12:47:00.380Z,2.30
2022-08-17T12:52:25.581Z,4.60
2022-08-17T12:57:54.631Z,3.33
2022-08-17T13:02:55.044Z,5.95
2022-08-17T13:07:53.300Z,5.25
2022-08-17T13:12:51.331Z,3.45
2022-08-17T13:17:56.888Z,9.52
2022-08-17T13:22:57.350Z,5.63
2022-08-17T13:27:55.107Z,7.90
2022-08-17T13:32:53.792Z,7.47
2022-08-17T13:38:08.802Z,3.08
2022-08-17T13:43:05.448Z,2.40
2022-08-17T13:48:16.919Z,5.80
2022-08-17T13:53:19.049Z,2.15
2022-08-17T13:58:21.336Z,5.97
2022-08-17T14:03:18.730Z,5.68
2022-08-17T14:08:17.235Z,11.80
2022-08-17T14:13:15.124Z,5.20
2022-08-17T14:18:11.542Z,3.50
2022-08-17T14:28:06.956Z,2.50
2022-08-17T14:33:03.417Z,5.35
2022-08-17T14:38:00.370Z,4.60
2022-08-17T14:42:57.723Z,3.25
2022-08-17T14:47:54.089Z,3.78
2022-08-17T14:52:52.287Z,5.75
2022-08-17T15:02:53.803Z,2.35
2022-08-17T15:07:50.562Z,5.15
2022-08-17T15:12:47.417Z,4.70
2022-08-17T15:17:45.881Z,3.75
2022-08-17T15:22:43.715Z,5.28
2022-08-17T15:27:40.383Z,6.78
2022-08-17T15:32:39.320Z,2.40
2022-08-17T15:37:36.355Z,3.20
2022-08-17T15:42:33.911Z,1.98
2022-08-17T15:47:30.277Z,2.78
2022-08-17T15:52:29.701Z,1.98
2022-08-17T15:57:27.341Z,2.85
2022-08-17T16:03:13.738Z,5.57
2022-08-17T16:07:45.038Z,3.05
2022-08-17T16:12:45.498Z,7.57
2022-08-17T16:17:42.212Z,3.17
2022-08-17T16:22:42.089Z,4.03
2022-08-17T16:27:38.513Z,4.07
2022-08-17T16:42:33.349Z,3.42
2022-08-17T16:47:30.276Z,3.72
2022-08-17T16:52:32.489Z,5.00
2022-08-17T16:57:29.988Z,8.05
2022-08-17T17:02:32.643Z,4.63
2022-08-17T17:07:42.909Z,2.22
2022-08-17T17:13:03.852Z,2.35
2022-08-17T17:18:07.323Z,3.60
2022-08-17T17:28:56.046Z,2.65
2022-08-17T17:34:00.359Z,2.28
2022-08-17T17:39:04.951Z,4.72
2022-08-17T17:44:11.691Z,3.50
2022-08-17T17:49:11.256Z,5.63
2022-08-17T17:54:18.343Z,3.53
2022-08-17T17:59:43.779Z,4.00
2022-08-17T18:04:53.616Z,6.53
2022-08-17T18:10:19.626Z,13.25
2022-08-17T18:15:31.634Z,11.50
2022-08-17T18:20:36.449Z,11.07
2022-08-17T18:25:50.489Z,11.82
2022-08-17T18:31:07.827Z,10.63
2022-08-17T18:36:05.886Z,10.85
2022-08-17T18:41:19.283Z,16.85
2022-08-17T18:46:28.988Z,15.82
2022-08-17T18:51:42.618Z,15.68
2022-08-17T18:56:48.706Z,21.15
2022-08-17T19:01:59.900Z,20.70
2022-08-17T19:07:16.705Z,16.17
2022-08-17T19:12:27.295Z,21.52
2022-08-17T19:17:32.234Z,23.30
2022-08-17T19:22:43.848Z,23.55
2022-08-17T19:27:50.092Z,19.00
2022-08-17T19:32:46.777Z,19.60
2022-08-17T19:37:58.962Z,31.10
2022-08-17T19:43:01.628Z,23.98
2022-08-17T19:48:12.342Z,25.92
2022-08-17T19:53:41.966Z,25.73
2022-08-17T19:59:01.203Z,23.43
2022-08-17T20:04:12.854Z,30.63
2022-08-17T20:09:34.611Z,27.90
2022-08-17T20:14:39.618Z,23.85
2022-08-17T20:20:19.866Z,29.35
2022-08-17T20:25:30.106Z,25.30
2022-08-17T20:30:35.027Z,32.53
2022-08-17T20:35:37.615Z,38.38
2022-08-17T20:40:35.589Z,33.83
2022-08-17T20:45:51.512Z,33.05
2022-08-17T20:50:56.265Z,34.85
2022-08-17T20:55:55.495Z,27.02
2022-08-17T21:00:57.840Z,34.55
2022-08-17T21:06:12.568Z,37.00
2022-08-17T21:12:03.067Z,39.75
2022-08-17T21:17:07.858Z,39.75
2022-08-17T21:22:46.412Z,38.95
2022-08-17T21:28:10.664Z,39.13
2022-08-17T21:33:20.264Z,39.05
2022-08-17T21:38:20.563Z,45.13
2022-08-17T21:43:23.839Z,43.83
2022-08-17T21:48:23.960Z,47.15
2022-08-17T21:53:33.155Z,47.42
2022-08-17T21:58:40.249Z,48.67
2022-08-17T22:03:38.472Z,49.83
2022-08-17T22:08:34.997Z,46.53
2022-08-17T22:13:32.372Z,53.40
2022-08-17T22:18:28.950Z,49.65
2022-08-17T22:23:45.198Z,55.25
2022-08-17T22:28:52.768Z,50.88
2022-08-17T22:33:52.114Z,49.05
2022-08-17T22:38:50.066Z,36.35
2022-08-17T22:43:46.809Z,39.25
2022-08-17T22:48:59.267Z,48.97
2022-08-17T22:54:30.671Z,51.78
2022-08-17T22:59:50.226Z,45.78
2022-08-17T23:04:51.350Z,35.80
2022-08-17T23:09:47.706Z,34.47
2022-08-17T23:14:45.987Z,41.40
2022-08-17T23:19:42.546Z,57.47
2022-08-17T23:24:43.363Z,40.90
2022-08-17T23:29:42.049Z,39.67
2022-08-17T23:34:39.656Z,44.15
2022-08-17T23:44:33.743Z,46.42
2022-08-17T23:49:31.987Z,40.83
2022-08-17T23:54:43.491Z,36.45
2022-08-17T23:59:39.997Z,35.95
